Boone Observed Data For Previous 48 Hours

Caption
Day and Hour Reservoir Elevation (behind dam)* Tailwater Elevation (below dam)* Average Hourly Discharge*
9/21/2017 2 AM EDT 1,352.87 1,260.23 0
9/21/2017 3 AM EDT 1,352.93 1,260.23 0
9/21/2017 4 AM EDT 1,352.90 1,262.69 200
9/21/2017 5 AM EDT 1,352.88 1,263.11 3,378
9/21/2017 6 AM EDT 1,352.84 1,263.29 3,499
9/21/2017 7 AM EDT 1,352.79 1,262.62 3,329
9/21/2017 8 AM EDT 1,352.73 1,262.91 3,272
9/21/2017 9 AM EDT 1,352.77 1,260.39 44
9/21/2017 10 AM EDT 1,352.86 1,260.35 0
9/21/2017 11 AM EDT 1,352.91 1,260.26 0
9/21/2017 12 PM EDT 1,352.98 1,260.24 0
9/21/2017 1 PM EDT 1,353.05 1,260.24 0
9/21/2017 2 PM EDT 1,353.10 1,260.24 0
9/21/2017 3 PM EDT 1,353.07 1,262.61 223
9/21/2017 4 PM EDT 1,353.10 1,263.11 3,292
9/21/2017 5 PM EDT 1,353.04 1,263.16 3,349
9/21/2017 6 PM EDT 1,352.98 1,263.29 3,375
9/21/2017 7 PM EDT 1,352.94 1,263.25 3,446
9/21/2017 8 PM EDT 1,352.89 1,263.28 3,241
9/21/2017 9 PM EDT 1,352.79 1,263.03 3,659
9/21/2017 10 PM EDT 1,352.76 1,262.95 3,443
9/21/2017 11 PM EDT 1,352.67 1,263.18 3,554
9/22/2017 12 AM EDT 1,352.74 1,260.30 30
9/22/2017 1 AM EDT 1,352.82 1,260.25 0
9/22/2017 2 AM EDT 1,352.88 1,260.24 0
9/22/2017 3 AM EDT 1,352.94 1,260.24 0
9/22/2017 4 AM EDT 1,352.91 1,262.47 196
9/22/2017 5 AM EDT 1,352.94 1,263.10 3,326
9/22/2017 6 AM EDT 1,352.88 1,262.97 3,577
9/22/2017 7 AM EDT 1,352.79 1,262.97 3,815
9/22/2017 8 AM EDT 1,352.74 1,263.21 3,776
9/22/2017 9 AM EDT 1,352.65 1,262.97 3,638
9/22/2017 10 AM EDT 1,352.69 1,261.00 90
9/22/2017 11 AM EDT 1,352.77 1,260.55 0
9/22/2017 12 PM EDT 1,352.83 1,260.43 0
9/22/2017 1 PM EDT 1,352.89 1,260.41 0
9/22/2017 2 PM EDT 1,352.96 1,260.33 0
9/22/2017 3 PM EDT 1,353.01 1,260.26 0
9/22/2017 4 PM EDT 1,353.01 1,262.59 193
9/22/2017 5 PM EDT 1,352.99 1,262.98 3,716
9/22/2017 6 PM EDT 1,352.93 1,263.15 3,635
9/22/2017 7 PM EDT 1,352.86 1,263.03 3,361
9/22/2017 8 PM EDT 1,352.79 1,263.23 3,244
9/22/2017 9 PM EDT 1,352.74 1,263.18 3,490
9/22/2017 10 PM EDT 1,352.66 1,263.21 3,497
9/22/2017 11 PM EDT 1,352.67 1,260.68 38
9/23/2017 12 AM EDT 1,352.71 1,260.31 0
9/23/2017 1 AM EDT 1,352.74 1,260.30 0
9/23/2017 2 AM EDT 1,352.76 1,260.29 0
9/23/2017 3 AM EDT 1,352.80 1,260.26 0

Elevations are in feet above sea level. Discharges are in cubic feet per second and are reported at the end of the hour.